| time (UTC) | temp F | wind direction | speed knots | gust knots | rain 1hr in | rain 24hr in | rain mn in | humidity % | barometer mb |
| 20260510033536 | 50 | 188 | 2.6 | 5.2 | 0.00 | 0.35 | 0.35 | 96 | 1009.5 |
| 20260510033035 | 50 | 185 | 0.9 | 1.7 | 0.00 | 0.35 | 0.35 | 95 | 1009.5 |
| 20260510032531 | 50 | 188 | 0.9 | 1.7 | 0.00 | 0.35 | 0.35 | 95 | 1009.6 |
| 20260510032026 | 50 | 259 | 0.9 | 1.7 | 0.00 | 0.35 | 0.35 | 95 | 1009.4 |
| 20260510031522 | 50 | 195 | 1.7 | 1.7 | 0.00 | 0.35 | 0.35 | 95 | 1009.5 |
| 20260510031018 | 50 | 213 | 1.7 | 2.6 | 0.00 | 0.35 | 0.35 | 95 | 1009.7 |
| 20260510030514 | 50 | 235 | 2.6 | 4.3 | 0.00 | 0.35 | 0.35 | 95 | 1009.5 |
| 20260510030011 | 50 | 291 | 0.9 | 1.7 | 0.00 | 0.35 | 0.35 | 95 | 1009.6 |
| 20260510025508 | 50 | 188 | 2.6 | 4.3 | 0.00 | 0.35 | 0.35 | 95 | 1009.5 |
| 20260510025005 | 50 | 263 | 2.6 | 2.6 | 0.00 | 0.35 | 0.35 | 94 | 1009.4 |
| 20260510024502 | 50 | 311 | 0.9 | 1.7 | 0.00 | 0.35 | 0.35 | 94 | 1009.3 |
| 20260510023958 | 50 | 255 | 1.7 | 1.7 | 0.00 | 0.35 | 0.35 | 94 | 1009.1 |
| 20260510023454 | 50 | 265 | 2.6 | 2.6 | 0.00 | 0.35 | 0.35 | 95 | 1009.0 |
| 20260510022951 | 50 | 228 | 2.6 | 2.6 | 0.00 | 0.35 | 0.35 | 94 | 1009.0 |
| 20260510022451 | 50 | 220 | 1.7 | 1.7 | 0.00 | 0.35 | 0.35 | 94 | 1009.0 |
| 20260510021950 | 51 | 172 | 5.2 | 6.1 | 0.00 | 0.35 | 0.35 | 94 | 1009.0 |
| 20260510021448 | 51 | 165 | 7.8 | 8.7 | 0.00 | 0.35 | 0.35 | 94 | 1009.0 |
| 20260510020945 | 51 | 110 | 4.3 | 6.1 | 0.00 | 0.35 | 0.35 | 94 | 1008.7 |
| 20260510020444 | 51 | 128 | 2.6 | 2.6 | 0.00 | 0.35 | 0.35 | 95 | 1009.0 |
| 20260510015940 | 51 | 132 | 4.3 | 4.3 | 0.00 | 0.35 | 0.35 | 95 | 1008.8 |
| 20260510015436 | 51 | 241 | 4.3 | 6.1 | 0.00 | 0.35 | 0.35 | 95 | 1008.8 |
| 20260510014932 | 51 | 219 | 2.6 | 4.3 | 0.00 | 0.35 | 0.35 | 95 | 1008.9 |
| 20260510014430 | 51 | 177 | 5.2 | 6.1 | 0.00 | 0.35 | 0.35 | 95 | 1008.7 |
| 20260510013926 | 51 | 203 | 3.5 | 5.2 | 0.00 | 0.35 | 0.35 | 95 | 1008.8 |
| 20260510013420 | 51 | 173 | 5.2 | 6.1 | 0.00 | 0.35 | 0.35 | 95 | 1008.8 |
| 20260510012916 | 51 | 231 | 3.5 | 5.2 | 0.00 | 0.35 | 0.35 | 94 | 1008.9 |
| 20260510012412 | 51 | 177 | 2.6 | 4.3 | 0.00 | 0.35 | 0.35 | 94 | 1008.8 |
| 20260510011906 | 51 | 220 | 1.7 | 2.6 | 0.00 | 0.35 | 0.35 | 94 | 1008.8 |
| 20260510011401 | 51 | 235 | 1.7 | 1.7 | 0.00 | 0.35 | 0.35 | 94 | 1008.7 |
| 20260510010858 | 51 | 186 | 3.5 | 4.3 | 0.00 | 0.35 | 0.35 | 93 | 1008.8 |
| 20260510010355 | 51 | 167 | 3.5 | 5.2 | 0.00 | 0.35 | 0.35 | 94 | 1008.4 |
| 20260510005852 | 51 | 238 | 0.9 | 0.9 | 0.00 | 0.35 | 0.35 | 94 | 1008.7 |
| 20260510005348 | 51 | 263 | 1.7 | 2.6 | 0.00 | 0.35 | 0.35 | 94 | 1008.5 |
| 20260510004846 | 51 | 166 | 1.7 | 1.7 | 0.00 | 0.35 | 0.35 | 93 | 1008.5 |
| 20260510004343 | 51 | 307 | 1.7 | 2.6 | 0.00 | 0.35 | 0.35 | 93 | 1008.2 |
| 20260510003841 | 52 | 293 | 2.6 | 5.2 | 0.00 | 0.35 | 0.35 | 93 | 1008.2 |
| 20260510003338 | 52 | 224 | 3.5 | 5.2 | 0.00 | 0.35 | 0.35 | 93 | 1008.3 |
| 20260510002836 | 52 | 168 | 2.6 | 4.3 | 0.00 | 0.35 | 0.35 | 92 | 1008.2 |
| 20260510002334 | 52 | 190 | 2.6 | 4.3 | 0.00 | 0.35 | 0.35 | 92 | 1008.3 |
| 20260510001830 | 52 | 220 | 4.3 | 6.1 | 0.00 | 0.35 | 0.35 | 92 | 1008.3 |
| 20260510001329 | 52 | 226 | 0.9 | 1.7 | 0.00 | 0.35 | 0.35 | 93 | 1008.2 |
| 20260510000824 | 52 | 205 | 3.5 | 5.2 | 0.00 | 0.35 | 0.35 | 92 | 1008.1 |
| 20260510000322 | 52 | 233 | 1.7 | 2.6 | 0.00 | 0.35 | 0.35 | 93 | 1008.2 |
| 20260509235819 | 52 | 172 | 2.6 | 2.6 | 0.00 | 0.35 | 0.35 | 92 | 1008.2 |
| 20260509235315 | 53 | 164 | 3.5 | 4.3 | 0.00 | 0.35 | 0.35 | 92 | 1008.2 |
| 20260509234811 | 53 | 205 | 2.6 | 2.6 | 0.00 | 0.35 | 0.35 | 92 | 1007.9 |
| 20260509234308 | 53 | 249 | 0.9 | 1.7 | 0.00 | 0.35 | 0.35 | 91 | 1008.1 |
| 20260509233806 | 53 | 192 | 2.6 | 4.3 | 0.00 | 0.35 | 0.35 | 92 | 1007.9 |
| 20260509233303 | 53 | 242 | 2.6 | 2.6 | 0.00 | 0.35 | 0.35 | 92 | 1007.9 |
| 20260509232759 | 53 | 171 | 2.6 | 4.3 | 0.00 | 0.35 | 0.35 | 92 | 1007.7 |
| 20260509232257 | 53 | 184 | 0.9 | 1.7 | 0.00 | 0.35 | 0.35 | 91 | 1007.7 |
| 20260509231753 | 53 | 122 | 2.6 | 4.3 | 0.00 | 0.35 | 0.35 | 91 | 1007.8 |
| 20260509231250 | 53 | 197 | 1.7 | 1.7 | 0.00 | 0.35 | 0.35 | 92 | 1007.8 |
| 20260509230748 | 53 | 169 | 1.7 | 2.6 | 0.00 | 0.35 | 0.35 | 91 | 1007.6 |
| 20260509230244 | 53 | 173 | 1.7 | 2.6 | 0.00 | 0.35 | 0.35 | 92 | 1007.8 |
| 20260509225739 | 53 | 158 | 1.7 | 1.7 | 0.00 | 0.35 | 0.35 | 93 | 1008.0 |
| 20260509225236 | 53 | 353 | 0.9 | 0.9 | 0.00 | 0.35 | 0.35 | 93 | 1008.0 |
| 20260509224731 | 53 | 218 | 0.9 | 0.9 | 0.00 | 0.35 | 0.35 | 92 | 1008.1 |
| 20260509224229 | 53 | 169 | 3.5 | 5.2 | 0.00 | 0.35 | 0.35 | 92 | 1007.9 |
| 20260509223726 | 53 | 194 | 3.5 | 5.2 | 0.00 | 0.35 | 0.35 | 92 | 1008.0 |
| 20260509223223 | 53 | 165 | 2.6 | 4.3 | 0.00 | 0.35 | 0.35 | 92 | 1007.8 |
| 20260509222719 | 53 | 203 | 3.5 | 5.2 | 0.00 | 0.35 | 0.35 | 92 | 1007.8 |
| 20260509222215 | 53 | 167 | 2.6 | 4.3 | 0.00 | 0.35 | 0.35 | 92 | 1007.6 |
| 20260509221711 | 53 | 204 | 2.6 | 5.2 | 0.00 | 0.35 | 0.35 | 93 | 1007.6 |
| 20260509221207 | 53 | 191 | 5.2 | 7.0 | 0.00 | 0.35 | 0.35 | 93 | 1007.9 |
| 20260509220703 | 52 | 258 | 1.7 | 2.6 | 0.00 | 0.35 | 0.35 | 93 | 1007.9 |
| 20260509220200 | 52 | 215 | 4.3 | 5.2 | 0.00 | 0.35 | 0.35 | 93 | 1007.9 |
| 20260509215655 | 52 | 145 | 4.3 | 5.2 | 0.00 | 0.35 | 0.35 | 94 | 1007.8 |
| 20260509215152 | 52 | 229 | 2.6 | 2.6 | 0.00 | 0.35 | 0.35 | 94 | 1007.9 |
| 20260509214649 | 52 | 169 | 5.2 | 6.1 | 0.00 | 0.35 | 0.35 | 94 | 1007.9 |
| 20260509214146 | 52 | 273 | 1.7 | 2.6 | 0.00 | 0.35 | 0.35 | 94 | 1007.8 |
| 20260509213643 | 52 | 258 | 3.5 | 4.3 | 0.00 | 0.35 | 0.35 | 95 | 1007.8 |
| 20260509213139 | 52 | 172 | 2.6 | 2.6 | 0.00 | 0.35 | 0.35 | 95 | 1008.0 |
| 20260509212636 | 52 | 175 | 4.3 | 5.2 | 0.00 | 0.35 | 0.35 | 96 | 1008.0 |
| 20260509212133 | 52 | 211 | 2.6 | 2.6 | 0.00 | 0.35 | 0.35 | 96 | 1007.9 |
| 20260509211629 | 51 | 209 | 5.2 | 7.0 | 0.00 | 0.35 | 0.35 | 97 | 1008.2 |
| 20260509211126 | 51 | 241 | 3.5 | 5.2 | 0.00 | 0.35 | 0.35 | 97 | 1008.3 |
| 20260509210623 | 51 | 253 | 2.6 | 2.6 | 0.00 | 0.35 | 0.35 | 97 | 1008.3 |
| 20260509210120 | 51 | 291 | 0.9 | 1.7 | 0.00 | 0.35 | 0.35 | 97 | 1008.3 |
| 20260509205614 | 51 | 238 | 3.5 | 6.1 | 0.00 | 0.35 | 0.35 | 97 | 1008.4 |
| 20260509205109 | 51 | 213 | 4.3 | 5.2 | 0.00 | 0.35 | 0.35 | 97 | 1008.4 |
| 20260509204606 | 51 | 246 | 1.7 | 2.6 | 0.00 | 0.35 | 0.35 | 97 | 1008.4 |
| 20260509204102 | 50 | 261 | 4.3 | 7.0 | 0.00 | 0.35 | 0.35 | 98 | 1008.4 |
| 20260509203558 | 50 | 167 | 3.5 | 5.2 | 0.00 | 0.35 | 0.35 | 98 | 1008.9 |
| 20260509203057 | 50 | 206 | 1.7 | 2.6 | 0.00 | 0.35 | 0.35 | 98 | 1008.6 |
| 20260509202556 | 50 | 204 | 4.3 | 6.1 | 0.07 | 0.35 | 0.35 | 98 | 1008.7 |
| 20260509202052 | 50 | 179 | 1.7 | 1.7 | 0.07 | 0.35 | 0.35 | 98 | 1008.5 |
| 20260509201547 | 50 | 172 | 4.3 | 7.0 | 0.07 | 0.35 | 0.35 | 98 | 1008.9 |
| 20260509201046 | 50 | 162 | 3.5 | 4.3 | 0.00 | 0.34 | 0.34 | 99 | 1008.7 |
| 20260509200545 | 50 | 244 | 0.9 | 0.9 | 0.00 | 0.34 | 0.34 | 99 | 1008.9 |
| 20260509200042 | 50 | 268 | 0.9 | 0.9 | 0.00 | 0.34 | 0.34 | 98 | 1008.9 |
| 20260509195538 | 50 | 164 | 3.5 | 5.2 | 0.00 | 0.34 | 0.34 | 98 | 1008.9 |
| 20260509195037 | 50 | 307 | 2.6 | 2.6 | 0.00 | 0.34 | 0.34 | 98 | 1008.9 |
| 20260509194532 | 50 | 150 | 2.6 | 2.6 | 0.00 | 0.34 | 0.34 | 98 | 1009.0 |
| 20260509194030 | 50 | 306 | 0.9 | 0.9 | 0.05 | 0.34 | 0.34 | 98 | 1008.8 |
| 20260509193530 | 50 | 166 | 4.3 | 5.2 | 0.05 | 0.34 | 0.34 | 98 | 1009.1 |
| 20260509193027 | 50 | 262 | 1.7 | 1.7 | 0.00 | 0.33 | 0.33 | 98 | 1009.1 |
| 20260509192524 | 50 | 150 | 2.6 | 4.3 | 0.07 | 0.33 | 0.33 | 98 | 1009.0 |
| 20260509192019 | 50 | 162 | 1.7 | 2.6 | 0.12 | 0.33 | 0.33 | 98 | 1009.1 |
| 20260509191514 | 50 | 228 | 1.7 | 1.7 | 0.12 | 0.32 | 0.32 | 97 | 1009.1 |
| 20260509191009 | 50 | 177 | 0.9 | 1.7 | 0.07 | 0.31 | 0.31 | 97 | 1009.3 |
| 20260509190507 | 50 | 275 | 0.9 | 0.9 | 0.00 | 0.30 | 0.30 | 97 | 1009.3 |
| 20260509190005 | 50 | 166 | 2.6 | 2.6 | 0.12 | 0.30 | 0.30 | 97 | 1009.4 |
| 20260509185501 | 50 | 197 | 1.7 | 2.6 | 0.12 | 0.30 | 0.30 | 97 | 1009.1 |
| 20260509184958 | 50 | 265 | 4.3 | 5.2 | 0.07 | 0.29 | 0.29 | 97 | 1009.5 |
| 20260509184457 | 50 | 179 | 3.5 | 5.2 | 0.00 | 0.28 | 0.28 | 97 | 1009.3 |
| 20260509183953 | 50 | 171 | 3.5 | 4.3 | 0.00 | 0.28 | 0.28 | 96 | 1009.3 |
| 20260509183453 | 50 | 145 | 2.6 | 2.6 | 0.05 | 0.28 | 0.28 | 96 | 1009.4 |
| 20260509182949 | 50 | 214 | 3.5 | 5.2 | 0.05 | 0.28 | 0.28 | 96 | 1009.4 |
| 20260509182445 | 50 | 189 | 2.6 | 2.6 | 0.00 | 0.27 | 0.27 | 96 | 1009.4 |
| 20260509181943 | 50 | 189 | 1.7 | 2.6 | 0.00 | 0.27 | 0.27 | 96 | 1009.5 |
| 20260509181441 | 50 | 261 | 2.6 | 2.6 | 0.00 | 0.27 | 0.27 | 96 | 1009.1 |
| 20260509180938 | 50 | 238 | 1.7 | 2.6 | 0.00 | 0.27 | 0.27 | 95 | 1009.3 |
| 20260509180434 | 50 | 212 | 2.6 | 4.3 | 0.00 | 0.27 | 0.27 | 95 | 1009.3 |
| 20260509175931 | 50 | 189 | 2.6 | 4.3 | 0.00 | 0.27 | 0.27 | 96 | 1009.3 |
| 20260509175427 | 50 | 184 | 6.1 | 7.0 | 0.00 | 0.27 | 0.27 | 95 | 1009.3 |
| 20260509174923 | 50 | 217 | 2.6 | 2.6 | 0.00 | 0.27 | 0.27 | 95 | 1009.0 |
| 20260509174420 | 50 | 231 | 2.6 | 4.3 | 0.00 | 0.27 | 0.27 | 95 | 1009.3 |
| 20260509173916 | 50 | 186 | 7.0 | 8.7 | 0.00 | 0.27 | 0.27 | 95 | 1009.1 |
| 20260509173415 | 50 | 177 | 7.8 | 8.7 | 0.00 | 0.27 | 0.27 | 95 | 1009.3 |
| 20260509172912 | 50 | 166 | 5.2 | 6.1 | 0.00 | 0.27 | 0.27 | 95 | 1008.9 |
| 20260509172409 | 50 | 149 | 5.2 | 6.1 | 0.00 | 0.27 | 0.27 | 95 | 1009.0 |
| 20260509171904 | 50 | 156 | 6.1 | 7.0 | 0.00 | 0.27 | 0.27 | 95 | 1009.0 |
| 20260509171401 | 50 | 265 | 5.2 | 6.1 | 0.00 | 0.27 | 0.27 | 95 | 1009.1 |
| 20260509170857 | 50 | 194 | 7.0 | 8.7 | 0.00 | 0.27 | 0.27 | 95 | 1009.3 |
| 20260509170353 | 50 | 174 | 2.6 | 5.2 | 0.00 | 0.27 | 0.27 | 95 | 1009.3 |
| 20260509165848 | 50 | 181 | 2.6 | 4.3 | 0.00 | 0.27 | 0.27 | 95 | 1009.0 |
| 20260509165342 | 50 | 174 | 6.1 | 8.7 | 0.00 | 0.27 | 0.27 | 94 | 1009.3 |
| 20260509164838 | 50 | 205 | 6.1 | 8.7 | 0.00 | 0.27 | 0.27 | 94 | 1009.1 |
| 20260509164335 | 50 | 183 | 2.6 | 4.3 | 0.00 | 0.27 | 0.27 | 95 | 1009.3 |
| 20260509163831 | 50 | 177 | 4.3 | 6.1 | 0.00 | 0.27 | 0.27 | 95 | 1009.3 |
| 20260509163328 | 50 | 177 | 7.0 | 9.6 | 0.00 | 0.27 | 0.27 | 95 | 1009.0 |
| 20260509162828 | 50 | 180 | 2.6 | 5.2 | 0.00 | 0.27 | 0.27 | 95 | 1009.3 |
| 20260509162326 | 50 | 175 | 7.0 | 7.8 | 0.00 | 0.27 | 0.27 | 95 | 1009.5 |
| 20260509161822 | 50 | 161 | 4.3 | 6.1 | 0.00 | 0.27 | 0.27 | 95 | 1009.4 |
| 20260509161319 | 50 | 183 | 2.6 | 4.3 | 0.00 | 0.27 | 0.27 | 95 | 1009.5 |
| 20260509160814 | 50 | 192 | 3.5 | 5.2 | 0.00 | 0.27 | 0.27 | 95 | 1009.5 |
| 20260509160310 | 50 | 223 | 4.3 | 6.1 | 0.00 | 0.27 | 0.27 | 95 | 1009.4 |
| 20260509155806 | 50 | 266 | 2.6 | 4.3 | 0.00 | 0.27 | 0.27 | 95 | 1009.8 |
| 20260509155306 | 49 | 143 | 5.2 | 7.0 | 0.07 | 0.27 | 0.27 | 95 | 1009.7 |
| 20260509154759 | 49 | 192 | 7.8 | 8.7 | 0.07 | 0.27 | 0.27 | 96 | 1009.8 |
| 20260509154256 | 50 | 167 | 6.1 | 7.8 | 0.00 | 0.26 | 0.26 | 96 | 1009.5 |
| 20260509153753 | 49 | 176 | 3.5 | 4.3 | 0.00 | 0.26 | 0.26 | 96 | 1010.0 |
| 20260509153249 | 49 | 157 | 2.6 | 4.3 | 0.00 | 0.26 | 0.26 | 96 | 1009.8 |
| 20260509152745 | 49 | 180 | 8.7 | 9.6 | 0.00 | 0.26 | 0.26 | 95 | 1009.7 |
| 20260509152242 | 49 | 184 | 3.5 | 6.1 | 0.00 | 0.26 | 0.26 | 95 | 1009.9 |
| 20260509151739 | 49 | 237 | 4.3 | 7.8 | 0.00 | 0.26 | 0.26 | 95 | 1010.1 |
| 20260509151236 | 49 | 183 | 6.1 | 7.8 | 0.00 | 0.26 | 0.26 | 95 | 1010.2 |
| 20260509150734 | 49 | 145 | 5.2 | 7.8 | 0.05 | 0.26 | 0.26 | 95 | 1009.9 |
| 20260509150232 | 49 | 154 | 4.3 | 6.1 | 0.05 | 0.26 | 0.26 | 95 | 1010.2 |
| 20260509145729 | 49 | 190 | 7.0 | 7.8 | 0.00 | 0.25 | 0.25 | 96 | 1010.4 |
| 20260509145228 | 49 | 215 | 2.6 | 5.2 | 0.07 | 0.25 | 0.25 | 96 | 1010.5 |
| 20260509144725 | 48 | 165 | 3.5 | 5.2 | 0.07 | 0.25 | 0.25 | 96 | 1010.3 |
| 20260509144222 | 48 | 266 | 2.6 | 2.6 | 0.00 | 0.24 | 0.24 | 96 | 1010.5 |
| 20260509143719 | 48 | 183 | 3.5 | 6.1 | 0.00 | 0.24 | 0.24 | 96 | 1010.4 |
| 20260509143217 | 48 | 178 | 1.7 | 2.6 | 0.05 | 0.24 | 0.24 | 96 | 1010.4 |
| 20260509142712 | 48 | 142 | 5.2 | 7.0 | 0.05 | 0.24 | 0.24 | 95 | 1010.4 |
| 20260509142209 | 48 | 130 | 2.6 | 4.3 | 0.00 | 0.23 | 0.23 | 96 | 1010.4 |
| 20260509141704 | 48 | 154 | 2.6 | 5.2 | 0.00 | 0.23 | 0.23 | 95 | 1010.4 |
| 20260509141202 | 48 | 155 | 4.3 | 5.2 | 0.07 | 0.23 | 0.23 | 96 | 1010.2 |
| 20260509140658 | 48 | 179 | 2.6 | 2.6 | 0.07 | 0.23 | 0.23 | 96 | 1010.4 |
| 20260509140156 | 48 | 138 | 2.6 | 4.3 | 0.00 | 0.22 | 0.22 | 96 | 1010.4 |
| 20260509135653 | 48 | 166 | 2.6 | 2.6 | 0.07 | 0.22 | 0.22 | 96 | 1010.3 |
| 20260509135151 | 48 | 122 | 2.6 | 2.6 | 0.07 | 0.22 | 0.22 | 97 | 1010.5 |
| 20260509134647 | 48 | 128 | 4.3 | 5.2 | 0.00 | 0.21 | 0.21 | 96 | 1010.2 |
| 20260509134145 | 48 | 161 | 4.3 | 5.2 | 0.00 | 0.21 | 0.21 | 96 | 1010.3 |
| 20260509133642 | 48 | 151 | 3.5 | 5.2 | 0.05 | 0.21 | 0.21 | 97 | 1010.4 |
| 20260509133139 | 48 | 163 | 3.5 | 4.3 | 0.05 | 0.21 | 0.21 | 97 | 1010.4 |
| 20260509132637 | 48 | 330 | 0.9 | 0.9 | 0.00 | 0.20 | 0.20 | 97 | 1010.4 |
| 20260509132136 | 47 | 144 | 3.5 | 4.3 | 0.07 | 0.20 | 0.20 | 97 | 1010.4 |
| 20260509131631 | 47 | 135 | 3.5 | 5.2 | 0.12 | 0.20 | 0.20 | 97 | 1010.6 |
| 20260509131129 | 47 | 18 | 0.0 | 0.9 | 0.05 | 0.19 | 0.19 | 97 | 1010.4 |
| 20260509130624 | 47 | 297 | 1.7 | 2.6 | 0.05 | 0.19 | 0.19 | 97 | 1010.5 |
| 20260509130121 | 47 | 206 | 1.7 | 2.6 | 0.07 | 0.18 | 0.18 | 97 | 1010.7 |
| 20260509125617 | 47 | 248 | 0.9 | 0.9 | 0.12 | 0.18 | 0.18 | 97 | 1010.6 |
| 20260509125114 | 47 | 170 | 4.3 | 5.2 | 0.05 | 0.17 | 0.17 | 97 | 1010.6 |
| 20260509124611 | 47 | 281 | 0.9 | 0.9 | 0.00 | 0.16 | 0.16 | 97 | 1010.8 |
| 20260509124108 | 47 | 259 | 0.9 | 0.9 | 0.00 | 0.16 | 0.16 | 97 | 1010.5 |
| 20260509123606 | 47 | 275 | 1.7 | 1.7 | 0.07 | 0.16 | 0.16 | 97 | 1010.7 |
| 20260509123102 | 47 | 263 | 2.6 | 2.6 | 0.07 | 0.16 | 0.16 | 97 | 1010.8 |
| 20260509122558 | 47 | 218 | 0.9 | 1.7 | 0.00 | 0.15 | 0.15 | 97 | 1010.7 |
| 20260509122055 | 47 | 163 | 1.7 | 2.6 | 0.05 | 0.15 | 0.15 | 98 | 1010.6 |
| 20260509121551 | 47 | 218 | 2.6 | 2.6 | 0.05 | 0.15 | 0.15 | 98 | 1010.6 |
| 20260509121049 | 47 | 154 | 4.3 | 4.3 | 0.00 | 0.14 | 0.14 | 98 | 1010.9 |
| 20260509120548 | 46 | 198 | 2.6 | 2.6 | 0.07 | 0.14 | 0.14 | 98 | 1010.7 |
| 20260509120046 | 46 | 137 | 1.7 | 2.6 | 0.07 | 0.14 | 0.14 | 97 | 1010.9 |
| 20260509115542 | 46 | 221 | 1.7 | 1.7 | 0.05 | 0.13 | 0.13 | 97 | 1010.8 |
| 20260509115040 | 46 | 316 | 0.0 | 0.9 | 0.05 | 0.13 | 0.13 | 97 | 1011.0 |
| 20260509114538 | 46 | 260 | 1.7 | 1.7 | 0.00 | 0.12 | 0.12 | 97 | 1011.0 |
| 20260509114037 | 46 | 236 | 3.5 | 5.2 | 0.00 | 0.12 | 0.12 | 97 | 1010.8 |
| 20260509113535 | 46 | 162 | 1.7 | 1.7 | 0.07 | 0.12 | 0.12 | 97 | 1010.7 |
| 20260509113032 | 46 | 246 | 2.6 | 4.3 | 0.07 | 0.12 | 0.12 | 97 | 1010.7 |
| 20260509112528 | 46 | 179 | 6.1 | 7.8 | 0.05 | 0.11 | 0.11 | 98 | 1010.6 |
| 20260509112025 | 46 | 302 | 0.9 | 1.7 | 0.05 | 0.11 | 0.11 | 98 | 1010.7 |
| 20260509111522 | 46 | 201 | 2.6 | 2.6 | 0.07 | 0.10 | 0.10 | 98 | 1010.8 |
| 20260509111020 | 46 | 162 | 3.5 | 4.3 | 0.14 | 0.10 | 0.10 | 98 | 1011.0 |
| 20260509110516 | 46 | 196 | 1.7 | 2.6 | 0.07 | 0.09 | 0.09 | 97 | 1010.8 |
| 20260509110013 | 46 | 174 | 4.3 | 5.2 | 0.05 | 0.08 | 0.08 | 97 | 1010.8 |
| 20260509105512 | 46 | 149 | 3.5 | 4.3 | 0.05 | 0.08 | 0.08 | 97 | 1010.6 |
| 20260509105009 | 46 | 323 | 0.9 | 1.7 | 0.07 | 0.07 | 0.07 | 97 | 1010.7 |
| 20260509104506 | 46 | 275 | 2.6 | 2.6 | 0.12 | 0.07 | 0.07 | 97 | 1010.8 |
| 20260509104003 | 46 | 307 | 1.7 | 2.6 | 0.05 | 0.06 | 0.06 | 97 | 1010.8 |
| 20260509103500 | 46 | 253 | 0.9 | 1.7 | 0.07 | 0.05 | 0.05 | 97 | 1011.0 |
| 20260509102958 | 46 | 303 | 0.9 | 0.9 | 0.07 | 0.05 | 0.05 | 97 | 1010.9 |
| 20260509102455 | 46 | 306 | 0.9 | 0.9 | 0.05 | 0.04 | 0.04 | 97 | 1010.8 |
| 20260509101952 | 46 | 118 | 0.9 | 1.7 | 0.05 | 0.04 | 0.04 | 97 | 1010.5 |
| 20260509101448 | 46 | 187 | 2.6 | 2.6 | 0.00 | 0.03 | 0.03 | 97 | 1010.5 |
| 20260509100945 | 46 | 153 | 0.9 | 0.9 | 0.00 | 0.03 | 0.03 | 97 | 1010.7 |
| 20260509100442 | 46 | 290 | 1.7 | 1.7 | 0.00 | 0.03 | 0.03 | 97 | 1010.7 |
| 20260509095939 | 46 | 289 | 0.9 | 0.9 | 0.00 | 0.03 | 0.03 | 97 | 1010.6 |
| 20260509095436 | 46 | 159 | 3.5 | 4.3 | 0.00 | 0.03 | 0.03 | 97 | 1010.2 |
| 20260509094933 | 46 | 192 | 1.7 | 2.6 | 0.00 | 0.03 | 0.03 | 97 | 1010.5 |
| 20260509094429 | 46 | 209 | 1.7 | 1.7 | 0.00 | 0.03 | 0.03 | 97 | 1010.2 |
| 20260509093927 | 46 | 309 | 0.9 | 0.9 | 0.00 | 0.03 | 0.03 | 97 | 1010.5 |
| 20260509093425 | 46 | 301 | 0.9 | 0.9 | 0.00 | 0.03 | 0.03 | 97 | 1010.6 |
| 20260509092923 | 46 | 280 | 0.0 | 0.9 | 0.00 | 0.03 | 0.03 | 97 | 1010.5 |
| 20260509092420 | 46 | 311 | 0.0 | 0.9 | 0.00 | 0.03 | 0.03 | 97 | 1010.2 |
| 20260509091919 | 46 | 313 | 0.0 | 0.0 | 0.07 | 0.03 | 0.03 | 97 | 1010.5 |
| 20260509091415 | 46 | 309 | 0.0 | 0.9 | 0.07 | 0.03 | 0.03 | 97 | 1010.7 |
| 20260509090912 | 46 | 240 | 0.9 | 1.7 | 0.00 | 0.02 | 0.02 | 97 | 1010.6 |
| 20260509090409 | 46 | 242 | 0.9 | 0.9 | 0.00 | 0.02 | 0.02 | 97 | 1010.7 |
| 20260509085907 | 46 | 203 | 2.6 | 2.6 | 0.00 | 0.02 | 0.02 | 97 | 1010.7 |
| 20260509085404 | 46 | 197 | 1.7 | 1.7 | 0.00 | 0.02 | 0.02 | 96 | 1010.6 |
| 20260509084900 | 46 | 242 | 2.6 | 2.6 | 0.00 | 0.02 | 0.02 | 96 | 1010.7 |
| 20260509084357 | 46 | 179 | 3.5 | 4.3 | 0.00 | 0.02 | 0.02 | 96 | 1010.8 |
| 20260509083855 | 46 | 142 | 3.5 | 4.3 | 0.00 | 0.02 | 0.02 | 96 | 1010.8 |
| 20260509083351 | 46 | 299 | 1.7 | 1.7 | 0.00 | 0.02 | 0.02 | 96 | 1010.9 |
| 20260509082848 | 46 | 229 | 1.7 | 1.7 | 0.00 | 0.02 | 0.02 | 96 | 1011.0 |
| 20260509082345 | 46 | 186 | 2.6 | 2.6 | 0.00 | 0.02 | 0.02 | 96 | 1011.0 |
| 20260509081842 | 46 | 242 | 0.9 | 0.9 | 0.05 | 0.02 | 0.02 | 96 | 1011.1 |
| 20260509081339 | 46 | 292 | 1.7 | 2.6 | 0.05 | 0.02 | 0.02 | 96 | 1011.1 |
| 20260509080837 | 46 | 273 | 0.9 | 0.9 | 0.05 | 0.02 | 0.02 | 96 | 1011.2 |
| 20260509080335 | 46 | 271 | 0.9 | 0.9 | 0.00 | 0.01 | 0.01 | 96 | 1011.2 |
| 20260509075833 | 45 | 288 | 0.0 | 0.9 | 0.00 | 0.01 | 0.01 | 95 | 1011.2 |
| 20260509075330 | 45 | 283 | 0.9 | 0.9 | 0.00 | 0.01 | 0.01 | 95 | 1011.2 |
| 20260509074827 | 45 | 297 | 0.0 | 0.9 | 0.00 | 0.01 | 0.01 | 95 | 1011.2 |
| 20260509074325 | 45 | 305 | 0.9 | 0.9 | 0.00 | 0.01 | 0.01 | 95 | 1011.0 |
| 20260509073820 | 45 | 292 | 0.9 | 0.9 | 0.00 | 0.01 | 0.01 | 94 | 1011.2 |
| 20260509073317 | 45 | 209 | 1.7 | 1.7 | 0.00 | 0.01 | 0.01 | 94 | 1010.9 |
| 20260509072814 | 45 | 242 | 0.9 | 1.7 | 0.00 | 0.01 | 0.01 | 94 | 1011.1 |
| 20260509072310 | 45 | 289 | 0.9 | 0.9 | 0.00 | 0.01 | 0.01 | 94 | 1011.1 |
| 20260509071807 | 45 | 310 | 0.0 | 0.0 | 0.00 | 0.01 | 0.01 | 93 | 1011.3 |
| 20260509071304 | 45 | 318 | 0.0 | 0.0 | 0.00 | 0.01 | 0.01 | 93 | 1010.9 |
| 20260509070801 | 45 | 325 | 0.0 | 0.0 | 0.00 | 0.01 | 0.01 | 93 | 1010.9 |
| 20260509070258 | 44 | 324 | 0.0 | 0.0 | 0.00 | 0.01 | 0.01 | 92 | 1010.8 |
| 20260509065754 | 44 | 327 | 0.0 | 0.0 | 0.00 | 0.01 | 0.01 | 92 | 1010.9 |
| 20260509065250 | 44 | 320 | 0.0 | 0.0 | 0.07 | 0.01 | 0.01 | 92 | 1010.9 |
| 20260509064747 | 44 | 326 | 0.0 | 0.0 | 0.07 | 0.01 | 0.01 | 91 | 1011.1 |
| 20260509064244 | 44 | 310 | 0.0 | 0.0 | 0.00 | 0.00 | 0.00 | 91 | 1011.1 |
| 20260509063741 | 44 | 327 | 0.0 | 0.0 | 0.00 | 0.00 | 0.00 | 90 | 1011.0 |
| 20260509063238 | 44 | 324 | 0.0 | 0.0 | 0.00 | 0.00 | 0.00 | 89 | 1011.3 |
| 20260509062735 | 44 | 332 | 0.0 | 0.0 | 0.00 | 0.00 | 0.00 | 88 | 1011.2 |
| 20260509062232 | 44 | 332 | 0.0 | 0.0 | 0.00 | 0.00 | 0.00 | 86 | 1011.5 |
| 20260509061729 | 44 | 310 | 0.0 | 0.0 | 0.00 | 0.00 | 0.00 | 85 | 1011.4 |
| 20260509061227 | 45 | 315 | 0.0 | 0.9 | 0.00 | 0.00 | 0.00 | 82 | 1011.6 |
| 20260509060724 | 45 | 315 | 0.0 | 0.9 | 0.00 | 0.00 | 0.00 | 81 | 1011.6 |
| 20260509060220 | 45 | 314 | 0.0 | 0.9 | 0.00 | 0.00 | 0.00 | 80 | 1011.7 |
| 20260509055716 | 45 | 287 | 0.0 | 0.9 | 0.00 | 0.00 | 0.00 | 81 | 1011.7 |
| 20260509055212 | 46 | 302 | 0.0 | 0.0 | 0.00 | 0.00 | 0.00 | 78 | 1011.7 |
| 20260509054709 | 46 | 220 | 0.9 | 0.9 | 0.00 | 0.00 | 0.00 | 76 | 1011.7 |
| 20260509054206 | 46 | 327 | 0.0 | 0.0 | 0.00 | 0.00 | 0.00 | 78 | 1011.7 |
| 20260509053705 | 46 | 328 | 0.9 | 0.9 | 0.00 | 0.00 | 0.00 | 76 | 1011.9 |
| 20260509053201 | 46 | 299 | 0.9 | 0.9 | 0.00 | 0.00 | 0.00 | 76 | 1011.6 |
| 20260509052659 | 46 | 322 | 0.0 | 0.0 | 0.00 | 0.00 | 0.00 | 75 | 1011.6 |
| 20260509052156 | 46 | 317 | 0.0 | 0.0 | 0.00 | 0.00 | 0.00 | 75 | 1011.6 |
| 20260509051654 | 46 | 325 | 0.0 | 0.0 | 0.00 | 0.00 | 0.00 | 75 | 1011.5 |
| 20260509051151 | 46 | 350 | 0.0 | 0.9 | 0.00 | 0.00 | 0.00 | 74 | 1011.5 |
| 20260509050648 | 47 | 312 | 0.0 | 0.0 | 0.00 | 0.00 | 0.00 | 73 | 1011.5 |
| 20260509050144 | 46 | 327 | 0.0 | 0.9 | 0.00 | 0.00 | 0.00 | 73 | 1011.7 |
| 20260509045642 | 46 | 319 | 0.9 | 0.9 | 0.00 | 0.00 | 0.00 | 73 | 1011.9 |
| 20260509045139 | 46 | 325 | 0.9 | 0.9 | 0.00 | 0.00 | 0.00 | 74 | 1011.7 |
| 20260509044636 | 46 | 317 | 0.0 | 0.9 | 0.00 | 0.00 | 0.00 | 74 | 1011.7 |
| 20260509044133 | 46 | 335 | 0.0 | 0.0 | 0.00 | 0.00 | 0.00 | 69 | 1011.7 |
| 20260509043630 | 46 | 330 | 0.0 | 0.0 | 0.00 | 0.00 | 0.00 | 69 | 1012.0 |
| 20260509043125 | 46 | 346 | 0.0 | 0.0 | 0.00 | 0.00 | 0.00 | 68 | 1012.0 |
| 20260509042622 | 46 | 339 | 0.0 | 0.0 | 0.00 | 0.00 | 0.00 | 66 | 1012.1 |
| 20260509042118 | 45 | 341 | 0.0 | 0.0 | 0.00 | 0.00 | 0.00 | 66 | 1012.1 |
| 20260509041615 | 45 | 328 | 0.0 | 0.0 | 0.00 | 0.00 | 0.00 | 70 | 1012.2 |
| 20260509041112 | 45 | 328 | 0.0 | 0.0 | 0.00 | 0.00 | 0.00 | 68 | 1012.1 |
| 20260509040611 | 45 | 324 | 0.0 | 0.0 | 0.00 | 0.00 | 0.00 | 66 | 1012.2 |
| 20260509040107 | 45 | 332 | 0.0 | 0.0 | 0.00 | 0.01 | 0.01 | 66 | 1012.1 |
| 20260509035604 | 44 | 341 | 0.0 | 0.0 | 0.00 | 0.01 | 0.01 | 67 | 1012.2 |
| 20260509035100 | 44 | 336 | 0.0 | 0.0 | 0.00 | 0.01 | 0.01 | 68 | 1012.2 |
| 20260509034559 | 44 | 334 | 0.0 | 0.0 | 0.00 | 0.01 | 0.01 | 69 | 1011.9 |
| 20260509034055 | 44 | 328 | 0.0 | 0.0 | 0.00 | 0.01 | 0.01 | 69 | 1012.0 |